sensor_id;sensor_type;location;lat;lon;timestamp;temperature;humidity
32446;DHT22;18899;50.748;7.102;2024-02-21T00:00:45;10.40;99.90
32446;DHT22;18899;50.748;7.102;2024-02-21T00:03:11;10.40;99.90
32446;DHT22;18899;50.748;7.102;2024-02-21T00:05:36;10.40;99.90
32446;DHT22;18899;50.748;7.102;2024-02-21T00:08:02;10.50;99.90
32446;DHT22;18899;50.748;7.102;2024-02-21T00:10:28;10.50;99.90
32446;DHT22;18899;50.748;7.102;2024-02-21T00:12:54;10.50;99.90
32446;DHT22;18899;50.748;7.102;2024-02-21T00:15:20;10.50;99.90
32446;DHT22;18899;50.748;7.102;2024-02-21T00:17:46;10.40;99.90
32446;DHT22;18899;50.748;7.102;2024-02-21T00:20:12;10.50;99.90
32446;DHT22;18899;50.748;7.102;2024-02-21T00:22:37;10.50;99.90
32446;DHT22;18899;50.748;7.102;2024-02-21T00:25:03;10.50;99.90
32446;DHT22;18899;50.748;7.102;2024-02-21T00:27:29;10.50;99.90
32446;DHT22;18899;50.748;7.102;2024-02-21T00:29:54;10.60;99.90
32446;DHT22;18899;50.748;7.102;2024-02-21T00:32:20;10.60;99.90
32446;DHT22;18899;50.748;7.102;2024-02-21T00:34:46;10.60;99.90
32446;DHT22;18899;50.748;7.102;2024-02-21T00:37:11;10.60;99.90
32446;DHT22;18899;50.748;7.102;2024-02-21T00:39:37;10.60;99.90
32446;DHT22;18899;50.748;7.102;2024-02-21T00:42:03;10.70;99.90
32446;DHT22;18899;50.748;7.102;2024-02-21T00:44:28;10.60;99.90
32446;DHT22;18899;50.748;7.102;2024-02-21T00:46:54;10.60;99.90
32446;DHT22;18899;50.748;7.102;2024-02-21T00:49:19;10.70;99.90
32446;DHT22;18899;50.748;7.102;2024-02-21T00:51:45;10.80;99.90
32446;DHT22;18899;50.748;7.102;2024-02-21T00:54:10;10.90;99.90
32446;DHT22;18899;50.748;7.102;2024-02-21T00:56:36;11.00;99.90
32446;DHT22;18899;50.748;7.102;2024-02-21T00:59:01;11.00;99.90
32446;DHT22;18899;50.748;7.102;2024-02-21T01:01:27;11.00;99.90
32446;DHT22;18899;50.748;7.102;2024-02-21T01:03:52;11.00;99.90
32446;DHT22;18899;50.748;7.102;2024-02-21T01:06:21;11.00;99.90
32446;DHT22;18899;50.748;7.102;2024-02-21T01:08:47;11.00;99.90
32446;DHT22;18899;50.748;7.102;2024-02-21T01:11:14;11.00;99.90
32446;DHT22;18899;50.748;7.102;2024-02-21T01:13:39;11.00;99.90
32446;DHT22;18899;50.748;7.102;2024-02-21T01:16:05;11.00;99.90
32446;DHT22;18899;50.748;7.102;2024-02-21T01:18:32;10.90;99.90
32446;DHT22;18899;50.748;7.102;2024-02-21T01:20:58;10.90;99.90
32446;DHT22;18899;50.748;7.102;2024-02-21T01:23:24;10.90;99.90
32446;DHT22;18899;50.748;7.102;2024-02-21T01:25:50;10.90;99.90
32446;DHT22;18899;50.748;7.102;2024-02-21T01:28:15;10.90;99.90
32446;DHT22;18899;50.748;7.102;2024-02-21T01:30:41;10.80;99.90
32446;DHT22;18899;50.748;7.102;2024-02-21T01:33:06;10.70;99.90
32446;DHT22;18899;50.748;7.102;2024-02-21T01:35:32;10.60;99.90
32446;DHT22;18899;50.748;7.102;2024-02-21T01:37:57;10.60;99.90
32446;DHT22;18899;50.748;7.102;2024-02-21T01:40:23;10.50;99.90
32446;DHT22;18899;50.748;7.102;2024-02-21T01:42:48;10.50;99.90
32446;DHT22;18899;50.748;7.102;2024-02-21T01:45:14;10.50;99.90
32446;DHT22;18899;50.748;7.102;2024-02-21T01:47:40;10.50;99.90
32446;DHT22;18899;50.748;7.102;2024-02-21T01:50:06;10.60;99.90
32446;DHT22;18899;50.748;7.102;2024-02-21T01:52:32;10.60;99.90
32446;DHT22;18899;50.748;7.102;2024-02-21T01:54:59;10.50;99.90
32446;DHT22;18899;50.748;7.102;2024-02-21T01:57:25;10.60;99.90
32446;DHT22;18899;50.748;7.102;2024-02-21T01:59:50;10.70;99.90
32446;DHT22;18899;50.748;7.102;2024-02-21T02:02:17;10.70;99.90
32446;DHT22;18899;50.748;7.102;2024-02-21T02:04:44;10.60;99.90
32446;DHT22;18899;50.748;7.102;2024-02-21T02:07:10;10.60;99.90
32446;DHT22;18899;50.748;7.102;2024-02-21T02:09:36;10.70;99.90
32446;DHT22;18899;50.748;7.102;2024-02-21T02:12:02;10.70;99.90
32446;DHT22;18899;50.748;7.102;2024-02-21T02:14:27;10.70;99.90
32446;DHT22;18899;50.748;7.102;2024-02-21T02:16:53;10.70;99.90
32446;DHT22;18899;50.748;7.102;2024-02-21T02:19:18;10.80;99.90
32446;DHT22;18899;50.748;7.102;2024-02-21T02:21:54;10.90;99.90
32446;DHT22;18899;50.748;7.102;2024-02-21T02:24:24;10.80;99.90
32446;DHT22;18899;50.748;7.102;2024-02-21T02:26:51;10.80;99.90
32446;DHT22;18899;50.748;7.102;2024-02-21T02:29:16;10.70;99.90
32446;DHT22;18899;50.748;7.102;2024-02-21T02:31:42;10.60;99.90
32446;DHT22;18899;50.748;7.102;2024-02-21T02:34:08;10.50;99.90
32446;DHT22;18899;50.748;7.102;2024-02-21T02:36:35;10.50;99.90
32446;DHT22;18899;50.748;7.102;2024-02-21T02:39:01;10.60;99.90
32446;DHT22;18899;50.748;7.102;2024-02-21T02:41:26;10.60;99.90
32446;DHT22;18899;50.748;7.102;2024-02-21T02:43:52;10.50;99.90
32446;DHT22;18899;50.748;7.102;2024-02-21T02:46:18;10.50;99.90
32446;DHT22;18899;50.748;7.102;2024-02-21T02:48:43;10.50;99.90
32446;DHT22;18899;50.748;7.102;2024-02-21T02:51:10;10.50;99.90
32446;DHT22;18899;50.748;7.102;2024-02-21T02:53:35;10.40;99.90
32446;DHT22;18899;50.748;7.102;2024-02-21T02:56:01;10.40;99.90
32446;DHT22;18899;50.748;7.102;2024-02-21T02:58:26;10.40;99.90
32446;DHT22;18899;50.748;7.102;2024-02-21T03:00:52;10.40;99.90
32446;DHT22;18899;50.748;7.102;2024-02-21T03:03:17;10.40;99.90
32446;DHT22;18899;50.748;7.102;2024-02-21T03:05:43;10.50;99.90
32446;DHT22;18899;50.748;7.102;2024-02-21T03:08:09;10.40;99.90
32446;DHT22;18899;50.748;7.102;2024-02-21T03:10:35;10.50;99.90
32446;DHT22;18899;50.748;7.102;2024-02-21T03:13:01;10.50;99.90
32446;DHT22;18899;50.748;7.102;2024-02-21T03:15:26;10.50;99.90
32446;DHT22;18899;50.748;7.102;2024-02-21T03:17:52;10.60;99.90
32446;DHT22;18899;50.748;7.102;2024-02-21T03:20:17;10.50;99.90
32446;DHT22;18899;50.748;7.102;2024-02-21T03:22:45;10.50;99.90
32446;DHT22;18899;50.748;7.102;2024-02-21T03:25:10;10.40;99.90
32446;DHT22;18899;50.748;7.102;2024-02-21T03:27:36;10.40;99.90
32446;DHT22;18899;50.748;7.102;2024-02-21T03:30:02;10.30;99.90
32446;DHT22;18899;50.748;7.102;2024-02-21T03:32:28;10.20;99.90
32446;DHT22;18899;50.748;7.102;2024-02-21T03:34:54;10.30;99.90
32446;DHT22;18899;50.748;7.102;2024-02-21T03:37:20;10.20;99.90
32446;DHT22;18899;50.748;7.102;2024-02-21T03:39:45;10.20;99.90
32446;DHT22;18899;50.748;7.102;2024-02-21T03:42:11;10.00;99.90
32446;DHT22;18899;50.748;7.102;2024-02-21T03:44:37;9.90;99.90
32446;DHT22;18899;50.748;7.102;2024-02-21T03:47:02;9.90;99.90
32446;DHT22;18899;50.748;7.102;2024-02-21T03:49:28;10.00;99.90
32446;DHT22;18899;50.748;7.102;2024-02-21T03:51:54;10.00;99.90
32446;DHT22;18899;50.748;7.102;2024-02-21T03:54:20;10.10;99.90
32446;DHT22;18899;50.748;7.102;2024-02-21T03:56:45;10.00;99.90
32446;DHT22;18899;50.748;7.102;2024-02-21T03:59:13;9.90;99.90
32446;DHT22;18899;50.748;7.102;2024-02-21T04:01:38;9.90;99.90
32446;DHT22;18899;50.748;7.102;2024-02-21T04:04:04;9.90;99.90
32446;DHT22;18899;50.748;7.102;2024-02-21T04:06:29;9.90;99.90
32446;DHT22;18899;50.748;7.102;2024-02-21T04:08:56;9.90;99.90
32446;DHT22;18899;50.748;7.102;2024-02-21T04:11:21;9.90;99.90
32446;DHT22;18899;50.748;7.102;2024-02-21T04:13:47;9.90;99.90
32446;DHT22;18899;50.748;7.102;2024-02-21T04:16:15;9.90;99.90
32446;DHT22;18899;50.748;7.102;2024-02-21T04:18:41;9.90;99.90
32446;DHT22;18899;50.748;7.102;2024-02-21T04:21:07;9.80;99.90
32446;DHT22;18899;50.748;7.102;2024-02-21T04:23:32;9.80;99.90
32446;DHT22;18899;50.748;7.102;2024-02-21T04:25:58;9.80;99.90
32446;DHT22;18899;50.748;7.102;2024-02-21T04:28:23;9.80;99.90
32446;DHT22;18899;50.748;7.102;2024-02-21T04:30:49;9.90;99.90
32446;DHT22;18899;50.748;7.102;2024-02-21T04:33:14;9.90;99.90
32446;DHT22;18899;50.748;7.102;2024-02-21T04:35:40;9.90;99.90
32446;DHT22;18899;50.748;7.102;2024-02-21T04:38:05;9.90;99.90
32446;DHT22;18899;50.748;7.102;2024-02-21T04:40:31;9.90;99.90
32446;DHT22;18899;50.748;7.102;2024-02-21T04:42:57;10.00;99.90
32446;DHT22;18899;50.748;7.102;2024-02-21T04:45:23;10.00;99.90
32446;DHT22;18899;50.748;7.102;2024-02-21T04:47:49;10.00;99.90
32446;DHT22;18899;50.748;7.102;2024-02-21T04:50:14;10.10;99.90
32446;DHT22;18899;50.748;7.102;2024-02-21T04:52:40;10.20;99.90
32446;DHT22;18899;50.748;7.102;2024-02-21T04:55:06;10.40;99.90
32446;DHT22;18899;50.748;7.102;2024-02-21T04:57:32;10.30;99.90
32446;DHT22;18899;50.748;7.102;2024-02-21T04:59:58;10.30;99.90
32446;DHT22;18899;50.748;7.102;2024-02-21T05:02:23;10.20;99.90
32446;DHT22;18899;50.748;7.102;2024-02-21T05:04:50;10.20;99.90
32446;DHT22;18899;50.748;7.102;2024-02-21T05:07:15;10.20;99.90
32446;DHT22;18899;50.748;7.102;2024-02-21T05:09:42;10.10;99.90
32446;DHT22;18899;50.748;7.102;2024-02-21T05:12:08;10.10;99.90
32446;DHT22;18899;50.748;7.102;2024-02-21T05:14:33;10.10;99.90
32446;DHT22;18899;50.748;7.102;2024-02-21T05:16:59;10.00;99.90
32446;DHT22;18899;50.748;7.102;2024-02-21T05:19:24;10.00;99.90
32446;DHT22;18899;50.748;7.102;2024-02-21T05:21:50;9.90;99.90
32446;DHT22;18899;50.748;7.102;2024-02-21T05:24:16;9.90;99.90
32446;DHT22;18899;50.748;7.102;2024-02-21T05:26:41;10.00;99.90
32446;DHT22;18899;50.748;7.102;2024-02-21T05:29:07;10.00;99.90
32446;DHT22;18899;50.748;7.102;2024-02-21T05:31:59;9.90;99.90
32446;DHT22;18899;50.748;7.102;2024-02-21T05:34:24;10.00;99.90
32446;DHT22;18899;50.748;7.102;2024-02-21T05:36:51;10.00;99.90
32446;DHT22;18899;50.748;7.102;2024-02-21T05:39:17;10.00;99.90
32446;DHT22;18899;50.748;7.102;2024-02-21T05:41:42;10.00;99.90
32446;DHT22;18899;50.748;7.102;2024-02-21T05:44:08;10.00;99.90
32446;DHT22;18899;50.748;7.102;2024-02-21T05:46:34;10.00;99.90
32446;DHT22;18899;50.748;7.102;2024-02-21T05:48:59;10.10;99.90
32446;DHT22;18899;50.748;7.102;2024-02-21T05:51:25;10.10;99.90
32446;DHT22;18899;50.748;7.102;2024-02-21T05:53:50;10.10;99.90
32446;DHT22;18899;50.748;7.102;2024-02-21T05:56:16;10.10;99.90
32446;DHT22;18899;50.748;7.102;2024-02-21T05:58:43;10.10;99.90
32446;DHT22;18899;50.748;7.102;2024-02-21T06:01:09;10.20;99.90
32446;DHT22;18899;50.748;7.102;2024-02-21T06:03:34;10.10;99.90
32446;DHT22;18899;50.748;7.102;2024-02-21T06:06:00;10.20;99.90
32446;DHT22;18899;50.748;7.102;2024-02-21T06:08:26;10.20;99.90
32446;DHT22;18899;50.748;7.102;2024-02-21T06:10:51;10.30;99.90
32446;DHT22;18899;50.748;7.102;2024-02-21T06:13:25;10.20;99.90
32446;DHT22;18899;50.748;7.102;2024-02-21T06:15:51;10.30;99.90
32446;DHT22;18899;50.748;7.102;2024-02-21T06:18:20;10.40;99.90
32446;DHT22;18899;50.748;7.102;2024-02-21T06:20:46;10.40;99.90
32446;DHT22;18899;50.748;7.102;2024-02-21T06:23:12;10.40;99.90
32446;DHT22;18899;50.748;7.102;2024-02-21T06:25:38;10.40;99.90
32446;DHT22;18899;50.748;7.102;2024-02-21T06:28:05;10.40;99.90
32446;DHT22;18899;50.748;7.102;2024-02-21T06:30:31;10.40;99.90
32446;DHT22;18899;50.748;7.102;2024-02-21T06:32:56;10.40;99.90
32446;DHT22;18899;50.748;7.102;2024-02-21T06:35:22;10.40;99.90
32446;DHT22;18899;50.748;7.102;2024-02-21T06:37:51;10.40;99.90
32446;DHT22;18899;50.748;7.102;2024-02-21T06:40:18;10.30;99.90
32446;DHT22;18899;50.748;7.102;2024-02-21T06:42:43;10.40;99.90
32446;DHT22;18899;50.748;7.102;2024-02-21T06:45:09;10.40;99.90
32446;DHT22;18899;50.748;7.102;2024-02-21T06:47:34;10.40;99.90
32446;DHT22;18899;50.748;7.102;2024-02-21T06:50:00;10.40;99.90
32446;DHT22;18899;50.748;7.102;2024-02-21T06:52:25;10.40;99.90
32446;DHT22;18899;50.748;7.102;2024-02-21T06:54:52;10.50;99.90
32446;DHT22;18899;50.748;7.102;2024-02-21T06:57:17;10.60;99.90
32446;DHT22;18899;50.748;7.102;2024-02-21T06:59:43;10.60;99.90
32446;DHT22;18899;50.748;7.102;2024-02-21T07:02:08;10.60;99.90
32446;DHT22;18899;50.748;7.102;2024-02-21T07:04:34;10.60;99.90
32446;DHT22;18899;50.748;7.102;2024-02-21T07:07:00;10.60;99.90
32446;DHT22;18899;50.748;7.102;2024-02-21T07:09:25;10.60;99.90
32446;DHT22;18899;50.748;7.102;2024-02-21T07:11:51;10.50;99.90
32446;DHT22;18899;50.748;7.102;2024-02-21T07:14:18;10.60;99.90
32446;DHT22;18899;50.748;7.102;2024-02-21T07:16:43;10.60;99.90
32446;DHT22;18899;50.748;7.102;2024-02-21T07:19:09;10.50;99.90
32446;DHT22;18899;50.748;7.102;2024-02-21T07:21:34;10.50;99.90
32446;DHT22;18899;50.748;7.102;2024-02-21T07:24:03;10.50;99.90
32446;DHT22;18899;50.748;7.102;2024-02-21T07:26:29;10.30;99.90
32446;DHT22;18899;50.748;7.102;2024-02-21T07:28:55;10.30;99.90
32446;DHT22;18899;50.748;7.102;2024-02-21T07:31:20;10.40;99.90
32446;DHT22;18899;50.748;7.102;2024-02-21T07:33:46;10.40;99.90
32446;DHT22;18899;50.748;7.102;2024-02-21T07:36:11;10.30;99.90
32446;DHT22;18899;50.748;7.102;2024-02-21T07:38:37;10.20;99.90
32446;DHT22;18899;50.748;7.102;2024-02-21T07:41:02;10.20;99.90
32446;DHT22;18899;50.748;7.102;2024-02-21T07:43:29;10.10;99.90
32446;DHT22;18899;50.748;7.102;2024-02-21T07:45:55;10.10;99.90
32446;DHT22;18899;50.748;7.102;2024-02-21T07:48:21;10.00;99.90
32446;DHT22;18899;50.748;7.102;2024-02-21T07:50:50;10.00;99.90
32446;DHT22;18899;50.748;7.102;2024-02-21T07:53:15;10.00;99.90
32446;DHT22;18899;50.748;7.102;2024-02-21T07:55:41;10.10;99.90
32446;DHT22;18899;50.748;7.102;2024-02-21T07:58:06;10.20;99.90
32446;DHT22;18899;50.748;7.102;2024-02-21T08:00:32;10.30;99.90
32446;DHT22;18899;50.748;7.102;2024-02-21T08:02:58;10.30;99.90
32446;DHT22;18899;50.748;7.102;2024-02-21T08:05:24;10.40;99.90
32446;DHT22;18899;50.748;7.102;2024-02-21T08:07:49;10.50;99.90
32446;DHT22;18899;50.748;7.102;2024-02-21T08:10:15;10.50;99.90
32446;DHT22;18899;50.748;7.102;2024-02-21T08:12:41;10.60;99.90
32446;DHT22;18899;50.748;7.102;2024-02-21T08:15:06;10.70;99.90
32446;DHT22;18899;50.748;7.102;2024-02-21T08:17:36;10.70;99.90
32446;DHT22;18899;50.748;7.102;2024-02-21T08:20:03;10.80;99.90
32446;DHT22;18899;50.748;7.102;2024-02-21T08:22:29;10.80;99.90
32446;DHT22;18899;50.748;7.102;2024-02-21T08:24:55;10.90;99.90
32446;DHT22;18899;50.748;7.102;2024-02-21T08:27:21;11.00;99.90
32446;DHT22;18899;50.748;7.102;2024-02-21T08:29:46;11.00;99.90
32446;DHT22;18899;50.748;7.102;2024-02-21T08:32:12;11.00;99.90
32446;DHT22;18899;50.748;7.102;2024-02-21T08:34:37;11.10;99.90
32446;DHT22;18899;50.748;7.102;2024-02-21T08:37:03;11.20;99.90
32446;DHT22;18899;50.748;7.102;2024-02-21T08:39:29;11.40;99.90
32446;DHT22;18899;50.748;7.102;2024-02-21T08:41:55;11.40;99.90
32446;DHT22;18899;50.748;7.102;2024-02-21T08:44:27;11.30;99.90
32446;DHT22;18899;50.748;7.102;2024-02-21T08:46:52;11.30;99.90
32446;DHT22;18899;50.748;7.102;2024-02-21T08:49:18;11.60;99.90
32446;DHT22;18899;50.748;7.102;2024-02-21T08:51:43;11.60;99.90
32446;DHT22;18899;50.748;7.102;2024-02-21T08:54:09;11.60;99.90
32446;DHT22;18899;50.748;7.102;2024-02-21T08:56:35;11.80;99.90
32446;DHT22;18899;50.748;7.102;2024-02-21T08:59:01;11.70;99.90
32446;DHT22;18899;50.748;7.102;2024-02-21T09:01:27;11.60;99.90
32446;DHT22;18899;50.748;7.102;2024-02-21T09:03:52;11.80;99.90
32446;DHT22;18899;50.748;7.102;2024-02-21T09:06:19;11.90;99.90
32446;DHT22;18899;50.748;7.102;2024-02-21T09:08:45;12.10;99.90
32446;DHT22;18899;50.748;7.102;2024-02-21T09:11:11;12.40;99.90
32446;DHT22;18899;50.748;7.102;2024-02-21T09:13:36;12.90;99.90
32446;DHT22;18899;50.748;7.102;2024-02-21T09:16:02;13.10;99.90
32446;DHT22;18899;50.748;7.102;2024-02-21T09:18:28;13.40;99.90
32446;DHT22;18899;50.748;7.102;2024-02-21T09:20:54;13.70;99.90
32446;DHT22;18899;50.748;7.102;2024-02-21T09:23:19;13.80;99.90
32446;DHT22;18899;50.748;7.102;2024-02-21T09:25:45;14.10;99.90
32446;DHT22;18899;50.748;7.102;2024-02-21T09:28:11;14.30;99.90
32446;DHT22;18899;50.748;7.102;2024-02-21T09:30:38;14.40;99.90
32446;DHT22;18899;50.748;7.102;2024-02-21T09:33:04;14.30;99.20
32446;DHT22;18899;50.748;7.102;2024-02-21T09:35:30;14.10;99.60
32446;DHT22;18899;50.748;7.102;2024-02-21T09:37:56;14.00;99.00
32446;DHT22;18899;50.748;7.102;2024-02-21T09:40:21;13.90;98.40
32446;DHT22;18899;50.748;7.102;2024-02-21T09:42:48;13.90;98.00
32446;DHT22;18899;50.748;7.102;2024-02-21T09:45:24;13.70;98.60
32446;DHT22;18899;50.748;7.102;2024-02-21T09:48:08;13.90;98.30
32446;DHT22;18899;50.748;7.102;2024-02-21T09:50:40;13.80;98.10
32446;DHT22;18899;50.748;7.102;2024-02-21T09:53:07;13.90;97.50
32446;DHT22;18899;50.748;7.102;2024-02-21T09:55:35;13.80;97.40
32446;DHT22;18899;50.748;7.102;2024-02-21T09:58:04;13.80;97.80
32446;DHT22;18899;50.748;7.102;2024-02-21T10:00:30;13.80;98.50
32446;DHT22;18899;50.748;7.102;2024-02-21T10:02:55;14.00;97.80
32446;DHT22;18899;50.748;7.102;2024-02-21T10:05:21;14.10;97.50
32446;DHT22;18899;50.748;7.102;2024-02-21T10:07:48;14.20;98.90
32446;DHT22;18899;50.748;7.102;2024-02-21T10:10:14;14.30;99.00
32446;DHT22;18899;50.748;7.102;2024-02-21T10:12:50;14.60;95.60
32446;DHT22;18899;50.748;7.102;2024-02-21T10:15:22;14.70;95.30
32446;DHT22;18899;50.748;7.102;2024-02-21T10:17:49;14.70;94.40
32446;DHT22;18899;50.748;7.102;2024-02-21T10:20:15;14.80;94.20
32446;DHT22;18899;50.748;7.102;2024-02-21T10:22:41;15.00;92.30
32446;DHT22;18899;50.748;7.102;2024-02-21T10:25:08;15.00;91.70
32446;DHT22;18899;50.748;7.102;2024-02-21T10:27:34;14.80;91.50
32446;DHT22;18899;50.748;7.102;2024-02-21T10:29:59;14.80;92.40
32446;DHT22;18899;50.748;7.102;2024-02-21T10:32:25;14.90;91.80
32446;DHT22;18899;50.748;7.102;2024-02-21T10:35:01;14.90;91.60
32446;DHT22;18899;50.748;7.102;2024-02-21T10:37:28;14.80;92.40
32446;DHT22;18899;50.748;7.102;2024-02-21T10:39:53;14.80;93.00
32446;DHT22;18899;50.748;7.102;2024-02-21T10:42:21;14.90;92.00
32446;DHT22;18899;50.748;7.102;2024-02-21T10:44:51;15.00;91.40
32446;DHT22;18899;50.748;7.102;2024-02-21T10:47:17;15.10;91.20
32446;DHT22;18899;50.748;7.102;2024-02-21T10:49:49;15.20;90.30
32446;DHT22;18899;50.748;7.102;2024-02-21T10:55:51;15.20;91.10
32446;DHT22;18899;50.748;7.102;2024-02-21T10:58:11;15.00;89.40
32446;DHT22;18899;50.748;7.102;2024-02-21T11:00:38;14.90;91.30
32446;DHT22;18899;50.748;7.102;2024-02-21T11:03:04;14.90;90.10
32446;DHT22;18899;50.748;7.102;2024-02-21T11:05:31;14.90;89.50
32446;DHT22;18899;50.748;7.102;2024-02-21T11:07:57;14.80;90.30
32446;DHT22;18899;50.748;7.102;2024-02-21T11:10:24;14.90;90.50
32446;DHT22;18899;50.748;7.102;2024-02-21T11:12:53;15.00;90.00
32446;DHT22;18899;50.748;7.102;2024-02-21T11:15:25;15.10;89.60
32446;DHT22;18899;50.748;7.102;2024-02-21T11:17:55;15.10;90.10
32446;DHT22;18899;50.748;7.102;2024-02-21T11:20:32;15.20;90.70
32446;DHT22;18899;50.748;7.102;2024-02-21T11:22:58;15.20;91.40
32446;DHT22;18899;50.748;7.102;2024-02-21T11:25:23;15.10;92.00
32446;DHT22;18899;50.748;7.102;2024-02-21T11:27:49;15.20;91.70
32446;DHT22;18899;50.748;7.102;2024-02-21T11:30:14;15.10;90.00
32446;DHT22;18899;50.748;7.102;2024-02-21T11:32:41;14.90;90.40
32446;DHT22;18899;50.748;7.102;2024-02-21T11:35:07;14.90;89.20
32446;DHT22;18899;50.748;7.102;2024-02-21T11:37:34;15.00;90.40
32446;DHT22;18899;50.748;7.102;2024-02-21T11:40:00;14.90;90.80
32446;DHT22;18899;50.748;7.102;2024-02-21T11:42:26;15.00;90.00
32446;DHT22;18899;50.748;7.102;2024-02-21T11:44:53;15.10;90.20
32446;DHT22;18899;50.748;7.102;2024-02-21T11:47:19;15.20;88.70
32446;DHT22;18899;50.748;7.102;2024-02-21T11:49:48;15.20;88.90
32446;DHT22;18899;50.748;7.102;2024-02-21T11:52:15;15.10;88.90
32446;DHT22;18899;50.748;7.102;2024-02-21T11:54:42;15.00;90.10
32446;DHT22;18899;50.748;7.102;2024-02-21T11:57:08;14.90;89.70
32446;DHT22;18899;50.748;7.102;2024-02-21T11:59:34;14.90;90.30
32446;DHT22;18899;50.748;7.102;2024-02-21T12:02:03;14.70;90.40
32446;DHT22;18899;50.748;7.102;2024-02-21T12:04:29;14.70;90.20
32446;DHT22;18899;50.748;7.102;2024-02-21T12:06:57;14.60;90.80
32446;DHT22;18899;50.748;7.102;2024-02-21T12:09:23;14.60;90.90
32446;DHT22;18899;50.748;7.102;2024-02-21T12:12:02;14.50;90.80
32446;DHT22;18899;50.748;7.102;2024-02-21T12:14:30;14.10;91.40
32446;DHT22;18899;50.748;7.102;2024-02-21T12:16:56;13.90;91.60
32446;DHT22;18899;50.748;7.102;2024-02-21T12:19:21;13.90;92.50
32446;DHT22;18899;50.748;7.102;2024-02-21T12:21:48;13.90;92.30
32446;DHT22;18899;50.748;7.102;2024-02-21T12:24:25;14.20;92.40
32446;DHT22;18899;50.748;7.102;2024-02-21T12:26:52;14.40;92.10
32446;DHT22;18899;50.748;7.102;2024-02-21T12:29:21;14.30;91.30
32446;DHT22;18899;50.748;7.102;2024-02-21T12:31:47;14.20;91.60
32446;DHT22;18899;50.748;7.102;2024-02-21T12:34:13;13.90;91.70
32446;DHT22;18899;50.748;7.102;2024-02-21T12:36:42;13.90;92.00
32446;DHT22;18899;50.748;7.102;2024-02-21T12:39:08;13.60;92.70
32446;DHT22;18899;50.748;7.102;2024-02-21T12:41:35;13.60;92.80
32446;DHT22;18899;50.748;7.102;2024-02-21T12:44:06;13.90;92.80
32446;DHT22;18899;50.748;7.102;2024-02-21T12:46:33;14.10;91.90
32446;DHT22;18899;50.748;7.102;2024-02-21T12:48:59;14.30;91.50
32446;DHT22;18899;50.748;7.102;2024-02-21T12:51:24;14.40;91.20
32446;DHT22;18899;50.748;7.102;2024-02-21T12:53:50;14.30;90.70
32446;DHT22;18899;50.748;7.102;2024-02-21T12:56:16;14.40;90.60
32446;DHT22;18899;50.748;7.102;2024-02-21T12:58:42;14.40;90.80
32446;DHT22;18899;50.748;7.102;2024-02-21T13:01:07;14.40;90.30
32446;DHT22;18899;50.748;7.102;2024-02-21T13:03:33;14.40;90.80
32446;DHT22;18899;50.748;7.102;2024-02-21T13:05:58;14.40;90.50
32446;DHT22;18899;50.748;7.102;2024-02-21T13:08:25;14.20;90.50
32446;DHT22;18899;50.748;7.102;2024-02-21T13:10:50;14.20;90.50
32446;DHT22;18899;50.748;7.102;2024-02-21T13:13:16;14.10;91.10
32446;DHT22;18899;50.748;7.102;2024-02-21T13:15:41;14.10;91.10
32446;DHT22;18899;50.748;7.102;2024-02-21T13:18:08;14.20;92.00
32446;DHT22;18899;50.748;7.102;2024-02-21T13:20:33;14.30;91.50
32446;DHT22;18899;50.748;7.102;2024-02-21T13:22:59;14.40;90.80
32446;DHT22;18899;50.748;7.102;2024-02-21T13:25:25;14.50;90.80
32446;DHT22;18899;50.748;7.102;2024-02-21T13:27:50;14.40;91.70
32446;DHT22;18899;50.748;7.102;2024-02-21T13:30:16;14.30;93.00
32446;DHT22;18899;50.748;7.102;2024-02-21T13:32:43;14.30;93.40
32446;DHT22;18899;50.748;7.102;2024-02-21T13:35:09;14.30;94.20
32446;DHT22;18899;50.748;7.102;2024-02-21T13:37:37;14.30;92.90
32446;DHT22;18899;50.748;7.102;2024-02-21T13:40:03;14.20;93.50
32446;DHT22;18899;50.748;7.102;2024-02-21T13:42:29;14.10;93.40
32446;DHT22;18899;50.748;7.102;2024-02-21T13:44:55;14.00;93.70
32446;DHT22;18899;50.748;7.102;2024-02-21T13:47:20;13.90;94.00
32446;DHT22;18899;50.748;7.102;2024-02-21T13:49:46;13.80;92.90
32446;DHT22;18899;50.748;7.102;2024-02-21T13:52:12;13.70;93.50
32446;DHT22;18899;50.748;7.102;2024-02-21T13:54:38;13.70;93.50
32446;DHT22;18899;50.748;7.102;2024-02-21T13:57:04;13.40;95.30
32446;DHT22;18899;50.748;7.102;2024-02-21T13:59:29;13.30;95.40
32446;DHT22;18899;50.748;7.102;2024-02-21T14:01:55;13.20;95.50
32446;DHT22;18899;50.748;7.102;2024-02-21T14:04:21;13.30;96.00
32446;DHT22;18899;50.748;7.102;2024-02-21T14:06:47;13.40;95.20
32446;DHT22;18899;50.748;7.102;2024-02-21T14:09:13;13.20;95.90
32446;DHT22;18899;50.748;7.102;2024-02-21T14:11:39;13.20;96.80
32446;DHT22;18899;50.748;7.102;2024-02-21T14:14:06;13.10;97.90
32446;DHT22;18899;50.748;7.102;2024-02-21T14:16:32;13.20;95.90
32446;DHT22;18899;50.748;7.102;2024-02-21T14:18:58;13.30;96.40
32446;DHT22;18899;50.748;7.102;2024-02-21T14:21:23;13.40;96.30
32446;DHT22;18899;50.748;7.102;2024-02-21T14:23:49;13.50;95.80
32446;DHT22;18899;50.748;7.102;2024-02-21T14:26:15;13.50;95.50
32446;DHT22;18899;50.748;7.102;2024-02-21T14:28:41;13.50;95.50
32446;DHT22;18899;50.748;7.102;2024-02-21T14:31:07;13.60;95.60
32446;DHT22;18899;50.748;7.102;2024-02-21T14:33:37;13.60;96.00
32446;DHT22;18899;50.748;7.102;2024-02-21T14:36:03;13.50;96.90
32446;DHT22;18899;50.748;7.102;2024-02-21T14:38:29;13.30;97.10
32446;DHT22;18899;50.748;7.102;2024-02-21T14:40:55;13.40;94.80
32446;DHT22;18899;50.748;7.102;2024-02-21T14:43:20;13.40;93.20
32446;DHT22;18899;50.748;7.102;2024-02-21T14:45:49;13.40;93.20
32446;DHT22;18899;50.748;7.102;2024-02-21T14:48:15;13.40;93.10
32446;DHT22;18899;50.748;7.102;2024-02-21T14:50:41;13.50;92.20
32446;DHT22;18899;50.748;7.102;2024-02-21T14:53:10;13.40;92.10
32446;DHT22;18899;50.748;7.102;2024-02-21T14:55:36;13.40;91.10
32446;DHT22;18899;50.748;7.102;2024-02-21T14:58:05;13.40;90.00
32446;DHT22;18899;50.748;7.102;2024-02-21T15:00:31;13.40;90.40
32446;DHT22;18899;50.748;7.102;2024-02-21T15:02:57;13.40;90.50
32446;DHT22;18899;50.748;7.102;2024-02-21T15:05:23;13.40;89.70
32446;DHT22;18899;50.748;7.102;2024-02-21T15:07:49;13.40;89.40
32446;DHT22;18899;50.748;7.102;2024-02-21T15:10:14;13.40;88.30
32446;DHT22;18899;50.748;7.102;2024-02-21T15:12:40;13.20;89.20
32446;DHT22;18899;50.748;7.102;2024-02-21T15:15:06;13.20;88.70
32446;DHT22;18899;50.748;7.102;2024-02-21T15:17:33;13.10;88.60
32446;DHT22;18899;50.748;7.102;2024-02-21T15:19:59;13.30;89.90
32446;DHT22;18899;50.748;7.102;2024-02-21T15:22:25;13.20;90.30
32446;DHT22;18899;50.748;7.102;2024-02-21T15:24:51;13.20;92.10
32446;DHT22;18899;50.748;7.102;2024-02-21T15:27:16;13.30;90.00
32446;DHT22;18899;50.748;7.102;2024-02-21T15:29:42;13.30;87.90